createdAt,value
2023-11-23T00:01:11.576Z,50428.35
2023-11-23T00:03:42.403Z,50417.15
2023-11-23T00:06:10.861Z,50433.95
2023-11-23T00:08:42.545Z,50433.55
2023-11-23T00:11:11.478Z,50402.36
2023-11-23T00:13:39.787Z,50415.96
2023-11-23T00:16:08.881Z,50426.35
2023-11-23T00:18:37.214Z,50431.55
2023-11-23T00:21:06.525Z,50422.35
2023-11-23T00:23:34.814Z,50424.75
2023-11-23T00:26:07.051Z,50424.75
2023-11-23T00:28:36.362Z,50438.35
2023-11-23T00:31:08.488Z,50412.76
2023-11-23T00:33:36.975Z,50433.95
2023-11-23T00:36:06.187Z,50416.35
2023-11-23T00:38:35.311Z,50413.55
2023-11-23T00:41:03.560Z,50413.15
2023-11-23T00:43:31.809Z,50425.55
2023-11-23T00:46:00.144Z,50429.55
2023-11-23T00:48:29.223Z,50441.95
2023-11-23T00:51:00.376Z,50417.16
2023-11-23T00:53:30.257Z,50421.55
2023-11-23T00:55:59.412Z,50427.15
2023-11-23T00:58:27.985Z,50428.75
2023-11-23T01:00:56.301Z,50427.15
2023-11-23T01:03:29.015Z,50441.95
2023-11-23T01:05:58.838Z,50421.95
2023-11-23T01:08:27.039Z,50424.75
2023-11-23T01:10:55.318Z,50419.95
2023-11-23T01:13:23.756Z,50431.95
2023-11-23T01:15:52.005Z,50420.75
2023-11-23T01:18:23.178Z,50436.35
2023-11-23T01:20:51.867Z,50425.55
2023-11-23T01:23:20.197Z,50435.15
2023-11-23T01:25:48.399Z,50433.15
2023-11-23T01:28:16.750Z,50424.75
2023-11-23T01:30:46.041Z,50419.96
2023-11-23T01:33:14.531Z,50421.95
2023-11-23T01:35:43.193Z,50440.34
2023-11-23T01:38:11.864Z,50444.75
2023-11-23T01:40:41.142Z,50430.35
2023-11-23T01:43:11.361Z,50422.75
2023-11-23T01:45:39.783Z,50431.55
2023-11-23T01:48:11.476Z,50436.75
2023-11-23T01:50:45.242Z,50436.74
2023-11-23T01:53:23.416Z,50422.75
2023-11-23T01:55:51.850Z,50437.55
2023-11-23T01:58:20.811Z,50425.15
2023-11-23T02:00:51.647Z,50442.75
2023-11-23T02:03:22.615Z,50430.35
2023-11-23T02:05:50.999Z,50435.95
2023-11-23T02:08:19.267Z,50429.15
2023-11-23T02:10:47.513Z,50421.55
2023-11-23T02:13:16.274Z,50424.75
2023-11-23T02:15:48.134Z,50432.35
2023-11-23T02:18:16.634Z,50444.34
2023-11-23T02:20:47.790Z,50427.95
2023-11-23T02:23:16.262Z,50439.14
2023-11-23T02:25:45.051Z,50425.55
2023-11-23T02:28:13.761Z,50429.95
2023-11-23T02:30:42.109Z,50422.75
2023-11-23T02:33:10.844Z,50435.15
2023-11-23T02:35:41.588Z,50428.35
2023-11-23T02:38:10.120Z,50424.75
2023-11-23T02:40:38.399Z,50434.75
2023-11-23T02:43:09.960Z,50417.96
2023-11-23T02:45:38.375Z,50427.95
2023-11-23T02:48:08.345Z,50438.35
2023-11-23T02:50:36.819Z,50411.55
2023-11-23T02:53:07.326Z,50431.15
2023-11-23T02:55:35.492Z,50417.95
2023-11-23T02:58:05.001Z,50438.35
2023-11-23T03:00:35.367Z,50432.35
2023-11-23T03:03:03.771Z,50432.35
2023-11-23T03:05:32.186Z,50425.16
2023-11-23T03:08:00.657Z,50430.35
2023-11-23T03:10:28.839Z,50436.75
2023-11-23T03:12:57.167Z,50431.55
2023-11-23T03:15:25.417Z,50429.95
2023-11-23T03:17:54.192Z,50421.95
2023-11-23T03:20:22.603Z,50419.95
2023-11-23T03:22:50.820Z,50422.75
2023-11-23T03:25:19.139Z,50441.15
2023-11-23T03:27:47.631Z,50441.55
2023-11-23T03:30:17.270Z,50416.75
2023-11-23T03:32:45.765Z,50432.35
2023-11-23T03:35:14.141Z,50419.95
2023-11-23T03:37:42.780Z,50428.35
2023-11-23T03:40:12.068Z,50445.15
2023-11-23T03:42:40.395Z,50429.15
2023-11-23T03:45:08.933Z,50414.76
2023-11-23T03:47:37.550Z,50421.55
2023-11-23T03:50:06.911Z,50437.55
2023-11-23T03:52:35.485Z,50423.15
2023-11-23T03:55:03.928Z,50425.55
2023-11-23T03:57:32.114Z,50437.15
2023-11-23T04:00:06.379Z,50429.95
2023-11-23T04:02:35.762Z,50433.55
2023-11-23T04:05:04.601Z,50419.15
2023-11-23T04:07:35.934Z,50425.15
2023-11-23T04:10:05.091Z,50423.55
2023-11-23T04:12:33.697Z,50431.55
2023-11-23T04:15:02.555Z,50425.55
2023-11-23T04:17:33.982Z,50401.96
2023-11-23T04:20:02.449Z,50421.55
2023-11-23T04:22:30.672Z,50423.15
2023-11-23T04:25:00.247Z,50431.55
2023-11-23T04:27:29.220Z,50418.75
2023-11-23T04:29:57.591Z,50414.35
2023-11-23T04:32:25.997Z,50426.75
2023-11-23T04:34:54.318Z,50425.15
2023-11-23T04:37:25.492Z,50419.55
2023-11-23T04:39:53.928Z,50416.75
2023-11-23T04:42:22.241Z,50421.95
2023-11-23T04:44:50.695Z,50435.55
2023-11-23T04:47:19.174Z,50424.75
2023-11-23T04:49:47.385Z,50421.95
2023-11-23T04:52:15.611Z,50417.96
2023-11-23T04:54:44.037Z,50420.76
2023-11-23T04:57:12.651Z,50420.36
2023-11-23T04:59:41.089Z,50427.95
2023-11-23T05:02:09.374Z,50417.55
2023-11-23T05:04:37.574Z,50411.55
2023-11-23T05:07:06.437Z,50429.15
2023-11-23T05:09:34.708Z,50434.35
2023-11-23T05:12:04.647Z,50445.14
2023-11-23T05:14:33.129Z,50425.15
2023-11-23T05:17:01.663Z,50417.55
2023-11-23T05:19:39.662Z,50422.75
2023-11-23T05:22:11.659Z,50425.55
2023-11-23T05:24:40.210Z,50432.75
2023-11-23T05:27:08.816Z,50443.55
2023-11-23T05:29:37.578Z,50421.16
2023-11-23T05:32:06.813Z,50443.55
2023-11-23T05:34:35.411Z,50435.15
2023-11-23T05:37:03.894Z,50433.55
2023-11-23T05:39:34.028Z,50429.15
2023-11-23T05:42:02.684Z,50423.95
2023-11-23T05:44:31.658Z,50427.15
2023-11-23T05:47:00.221Z,50437.95
2023-11-23T05:49:31.538Z,50436.75
2023-11-23T05:51:59.905Z,50436.35
2023-11-23T05:54:28.669Z,50423.55
2023-11-23T05:56:56.878Z,50425.15
2023-11-23T05:59:25.258Z,50436.75
2023-11-23T06:01:53.634Z,50445.54
2023-11-23T06:04:22.666Z,50439.14
2023-11-23T06:06:52.939Z,50424.35
2023-11-23T06:09:23.444Z,50421.95
2023-11-23T06:11:51.732Z,50427.15
2023-11-23T06:14:20.448Z,50422.75
2023-11-23T06:16:52.679Z,50420.75
2023-11-23T06:19:23.521Z,50430.75
2023-11-23T06:21:51.845Z,50433.55
2023-11-23T06:24:20.257Z,50433.55
2023-11-23T06:26:49.498Z,50423.55
2023-11-23T06:29:17.841Z,50425.15
2023-11-23T06:31:46.411Z,50435.95
2023-11-23T06:34:14.965Z,50431.95
2023-11-23T06:36:46.913Z,50429.95
2023-11-23T06:39:25.458Z,50430.35
2023-11-23T06:41:55.460Z,50437.54
2023-11-23T06:44:26.974Z,50418.36
2023-11-23T06:46:55.523Z,50420.75
2023-11-23T06:49:26.317Z,50427.15
2023-11-23T06:51:55.969Z,50419.16
2023-11-23T06:54:25.263Z,50435.55
2023-11-23T06:56:53.426Z,50406.36
2023-11-23T06:59:21.712Z,50417.16
2023-11-23T07:01:50.239Z,50425.15
2023-11-23T07:04:18.488Z,50427.15
2023-11-23T07:06:46.963Z,50425.95
2023-11-23T07:09:15.338Z,50409.16
2023-11-23T07:11:45.819Z,50419.95
2023-11-23T07:14:14.201Z,50441.15
2023-11-23T07:16:42.605Z,50428.35
2023-11-23T07:19:11.939Z,50416.75
2023-11-23T07:21:41.257Z,50422.35
2023-11-23T07:24:10.354Z,50409.15
2023-11-23T07:26:38.836Z,50416.75
2023-11-23T07:29:07.295Z,50401.16
2023-11-23T07:31:37.383Z,50412.76
2023-11-23T07:34:06.122Z,50419.95
2023-11-23T07:36:34.608Z,50419.16
2023-11-23T07:39:02.890Z,50415.95
2023-11-23T07:41:31.410Z,50407.96
2023-11-23T07:44:00.689Z,50403.96
2023-11-23T07:46:29.208Z,50403.16
2023-11-23T07:48:57.642Z,50420.36
2023-11-23T07:51:26.142Z,50417.95
2023-11-23T07:53:54.516Z,50405.55
2023-11-23T07:56:23.692Z,50412.35
2023-11-23T07:58:53.169Z,50425.15
2023-11-23T08:01:24.267Z,50405.16
2023-11-23T08:03:53.174Z,50395.56
2023-11-23T08:06:21.774Z,50403.16
2023-11-23T08:08:51.544Z,50406.76
2023-11-23T08:11:25.427Z,50399.96
2023-11-23T08:13:56.744Z,50398.36
2023-11-23T08:16:28.618Z,50392.76
2023-11-23T08:18:57.457Z,50379.56
2023-11-23T08:21:26.558Z,50400.36
2023-11-23T08:23:56.251Z,50391.56
2023-11-23T08:26:24.682Z,50398.36
2023-11-23T08:28:52.880Z,50401.56
2023-11-23T08:31:24.726Z,50399.16
2023-11-23T08:33:53.708Z,50393.56
2023-11-23T08:36:23.134Z,50394.76
2023-11-23T08:38:54.362Z,50404.36
2023-11-23T08:41:26.382Z,50392.76
2023-11-23T08:43:54.816Z,50395.96
2023-11-23T08:46:25.197Z,50388.36
2023-11-23T08:48:53.673Z,50404.76
2023-11-23T08:51:21.977Z,50387.96
2023-11-23T08:53:50.224Z,50426.75
2023-11-23T08:56:18.682Z,50402.76
2023-11-23T08:58:47.060Z,50395.16
2023-11-23T09:01:16.062Z,50390.36
2023-11-23T09:03:44.486Z,50395.16
2023-11-23T09:06:14.008Z,50395.16
2023-11-23T09:08:42.817Z,50396.36
2023-11-23T09:11:11.460Z,50411.95
2023-11-23T09:13:39.755Z,50399.96
2023-11-23T09:16:08.937Z,50403.96
2023-11-23T09:18:37.429Z,50403.56
2023-11-23T09:21:06.693Z,50385.96
2023-11-23T09:23:35.003Z,50396.36
2023-11-23T09:26:09.013Z,50411.16
2023-11-23T09:28:37.445Z,50371.96
2023-11-23T09:31:05.942Z,50392.37
2023-11-23T09:33:34.547Z,50403.55
2023-11-23T09:36:04.928Z,50383.16
2023-11-23T09:38:33.272Z,50392.36
2023-11-23T09:41:03.240Z,50395.56
2023-11-23T09:43:33.452Z,50388.37
2023-11-23T09:46:03.965Z,50395.96
2023-11-23T09:48:35.470Z,50383.16
2023-11-23T09:51:04.417Z,50401.96
2023-11-23T09:53:34.688Z,50383.57
2023-11-23T09:56:05.338Z,50401.96
2023-11-23T09:58:34.170Z,50390.76
2023-11-23T10:01:04.501Z,50392.76
2023-11-23T10:03:35.806Z,50396.36
2023-11-23T10:06:04.514Z,50396.76
2023-11-23T10:08:34.700Z,50376.36
2023-11-23T10:11:04.401Z,50375.16
2023-11-23T10:13:32.677Z,50380.76
2023-11-23T10:16:05.754Z,50374.77
2023-11-23T10:18:43.774Z,50388.76
2023-11-23T10:21:13.276Z,50380.77
2023-11-23T10:23:45.128Z,50386.76
2023-11-23T10:26:17.898Z,50383.96
2023-11-23T10:28:46.208Z,50360.37
2023-11-23T10:31:14.551Z,50385.16
2023-11-23T10:33:44.109Z,50360.77
2023-11-23T10:36:13.342Z,50373.96
2023-11-23T10:38:44.380Z,50361.57
2023-11-23T10:41:16.112Z,50378.77
2023-11-23T10:43:48.166Z,50369.57
2023-11-23T10:46:20.155Z,50393.96
2023-11-23T10:48:51.338Z,50367.57
2023-11-23T10:51:22.708Z,50385.56
2023-11-23T10:53:51.054Z,50376.37
2023-11-23T10:56:23.137Z,50364.77
2023-11-23T10:58:58.008Z,50382.76
2023-11-23T11:01:28.727Z,50374.37
2023-11-23T11:03:57.187Z,50383.56
2023-11-23T11:06:26.668Z,50377.96
2023-11-23T11:08:54.910Z,50387.96
2023-11-23T11:11:25.297Z,50368.37
2023-11-23T11:14:03.996Z,50353.57
2023-11-23T11:16:36.580Z,50369.96
2023-11-23T11:19:09.251Z,50394.36
2023-11-23T11:22:01.599Z,50389.16
2023-11-23T11:24:30.031Z,50390.36
2023-11-23T11:27:05.070Z,50371.57
2023-11-23T11:29:34.164Z,50387.57
2023-11-23T11:32:09.220Z,50367.17
2023-11-23T11:34:38.066Z,50379.16
2023-11-23T11:37:08.766Z,50374.37
2023-11-23T11:39:38.848Z,50379.96
2023-11-23T11:42:11.801Z,50375.16
2023-11-23T11:44:44.763Z,50373.96
2023-11-23T11:47:14.613Z,50371.57
2023-11-23T11:49:43.189Z,50378.37
2023-11-23T11:52:13.941Z,50373.96
2023-11-23T11:54:43.375Z,50355.98
2023-11-23T11:57:11.647Z,50373.57
2023-11-23T11:59:39.984Z,50347.98
2023-11-23T12:03:00.279Z,50373.17
2023-11-23T12:05:30.316Z,50371.17
2023-11-23T12:07:58.597Z,50368.77
2023-11-23T12:10:40.249Z,50365.57
2023-11-23T12:13:16.088Z,50361.97
2023-11-23T12:15:47.873Z,50357.57
2023-11-23T12:18:16.305Z,50371.96
2023-11-23T12:20:44.895Z,50389.56
2023-11-23T12:23:16.533Z,50367.97
2023-11-23T12:25:47.227Z,50359.17
2023-11-23T12:28:23.571Z,50370.37
2023-11-23T12:30:52.284Z,50373.17
2023-11-23T12:33:20.696Z,50370.77
2023-11-23T12:35:49.573Z,50372.37
2023-11-23T12:38:18.185Z,50392.76
2023-11-23T12:40:46.456Z,50373.57
2023-11-23T12:43:19.151Z,50388.36
2023-11-23T12:45:47.624Z,50361.97
2023-11-23T12:48:16.134Z,50383.96
2023-11-23T12:50:44.504Z,50377.57
2023-11-23T12:53:12.837Z,50387.96
2023-11-23T12:55:43.699Z,50380.77
2023-11-23T12:58:13.844Z,50365.57
2023-11-23T13:00:43.402Z,50363.17
2023-11-23T13:03:12.206Z,50376.37
2023-11-23T13:05:40.699Z,50371.17
2023-11-23T13:08:09.555Z,50373.96
2023-11-23T13:10:39.128Z,50372.37
2023-11-23T13:13:07.257Z,50372.37
2023-11-23T13:15:37.052Z,50385.17
2023-11-23T13:18:05.838Z,50360.37
2023-11-23T13:20:34.495Z,50377.17
2023-11-23T13:23:05.087Z,50357.57
2023-11-23T13:26:02.168Z,50377.56
2023-11-23T13:28:30.453Z,50367.17
2023-11-23T13:31:00.517Z,50367.97
2023-11-23T13:33:31.902Z,50367.17
2023-11-23T13:36:00.469Z,50356.37
2023-11-23T13:38:34.694Z,50377.16
2023-11-23T13:41:04.414Z,50367.97
2023-11-23T13:43:32.782Z,50374.37
2023-11-23T13:46:04.521Z,50377.17
2023-11-23T13:48:32.986Z,50365.97
2023-11-23T13:51:01.875Z,50359.98
2023-11-23T13:53:30.594Z,50375.16
2023-11-23T13:55:58.937Z,50367.17
2023-11-23T13:58:31.042Z,50375.16
2023-11-23T14:01:01.209Z,50377.96
2023-11-23T14:03:31.967Z,50371.57
2023-11-23T14:06:01.756Z,50378.37
2023-11-23T14:08:30.132Z,50361.97
2023-11-23T14:11:01.031Z,50365.97
2023-11-23T14:13:29.325Z,50356.38
2023-11-23T14:15:58.548Z,50375.56
2023-11-23T14:18:29.647Z,50375.96
2023-11-23T14:20:58.122Z,50363.57
2023-11-23T14:23:26.392Z,50364.77
2023-11-23T14:25:54.675Z,50369.57
2023-11-23T14:28:23.198Z,50381.16
2023-11-23T14:30:57.519Z,50364.37
2023-11-23T14:33:30.196Z,50398.76
2023-11-23T14:35:58.956Z,50390.76
2023-11-23T14:38:27.941Z,50385.57
2023-11-23T14:40:59.207Z,50375.96
2023-11-23T14:43:29.397Z,50388.36
2023-11-23T14:45:59.942Z,50365.57
2023-11-23T14:48:28.750Z,50377.96
2023-11-23T14:50:59.420Z,50378.37
2023-11-23T14:53:28.845Z,50377.56
2023-11-23T14:55:59.232Z,50374.37
2023-11-23T14:58:29.233Z,50373.16
2023-11-23T15:01:01.490Z,50381.16
2023-11-23T15:03:31.497Z,50381.16
2023-11-23T15:06:00.895Z,50387.56
2023-11-23T15:08:29.506Z,50385.16
2023-11-23T15:10:57.886Z,50379.56
2023-11-23T15:13:32.714Z,50381.96
2023-11-23T15:16:07.075Z,50389.16
2023-11-23T15:18:35.879Z,50389.16
2023-11-23T15:21:05.164Z,50387.96
2023-11-23T15:23:35.828Z,50386.76
2023-11-23T15:26:06.397Z,50375.17
2023-11-23T15:28:34.638Z,50383.57
2023-11-23T15:31:03.007Z,50391.16
2023-11-23T15:33:31.932Z,50387.16
2023-11-23T15:36:02.329Z,50380.77
2023-11-23T15:38:30.727Z,50365.97
2023-11-23T15:40:59.866Z,50373.17
2023-11-23T15:43:28.453Z,50383.56
2023-11-23T15:45:56.961Z,50379.16
2023-11-23T15:48:25.255Z,50389.56
2023-11-23T15:50:53.718Z,50379.96
2023-11-23T15:53:22.099Z,50387.56
2023-11-23T15:55:52.305Z,50368.77
2023-11-23T15:58:20.682Z,50385.96
2023-11-23T16:00:49.112Z,50390.76
2023-11-23T16:03:17.590Z,50381.57
2023-11-23T16:05:45.966Z,50367.17
2023-11-23T16:08:14.358Z,50383.57
2023-11-23T16:10:44.861Z,50373.17
2023-11-23T16:13:15.111Z,50366.37
2023-11-23T16:15:43.502Z,50390.36
2023-11-23T16:18:15.420Z,50376.37
2023-11-23T16:20:48.210Z,50373.96
2023-11-23T16:23:16.583Z,50389.96
2023-11-23T16:25:45.334Z,50393.56
2023-11-23T16:28:16.695Z,50376.77
2023-11-23T16:30:47.060Z,50381.16
2023-11-23T16:33:15.345Z,50379.56
2023-11-23T16:35:44.134Z,50373.96
2023-11-23T16:38:12.364Z,50379.16
2023-11-23T16:40:40.647Z,50393.96
2023-11-23T16:43:11.839Z,50387.16
2023-11-23T16:45:40.113Z,50381.57
2023-11-23T16:48:08.802Z,50385.16
2023-11-23T16:50:38.162Z,50390.36
2023-11-23T16:53:06.443Z,50386.77
2023-11-23T16:55:38.829Z,50383.16
2023-11-23T16:58:07.300Z,50389.16
2023-11-23T17:00:36.257Z,50374.77
2023-11-23T17:03:06.462Z,50386.76
2023-11-23T17:05:34.985Z,50383.16
2023-11-23T17:08:06.195Z,50381.16
2023-11-23T17:10:34.544Z,50387.57
2023-11-23T17:13:03.015Z,50400.76
2023-11-23T17:15:31.638Z,50382.37
2023-11-23T17:18:00.080Z,50398.36
2023-11-23T17:20:29.482Z,50393.96
2023-11-23T17:23:02.874Z,50386.76
2023-11-23T17:25:32.582Z,50388.36
2023-11-23T17:28:01.912Z,50395.16
2023-11-23T17:30:31.160Z,50394.36
2023-11-23T17:32:59.531Z,50394.36
2023-11-23T17:35:28.773Z,50388.76
2023-11-23T17:37:57.716Z,50388.36
2023-11-23T17:40:26.230Z,50385.96
2023-11-23T17:42:54.567Z,50391.16
2023-11-23T17:45:22.974Z,50401.56
2023-11-23T17:47:52.765Z,50405.96
2023-11-23T17:50:24.598Z,50393.96
2023-11-23T17:52:54.111Z,50397.56
2023-11-23T17:55:22.688Z,50390.76
2023-11-23T17:57:51.862Z,50410.76
2023-11-23T18:00:21.861Z,50391.56
2023-11-23T18:02:54.216Z,50405.96
2023-11-23T18:05:22.729Z,50400.36
2023-11-23T18:07:51.078Z,50395.96
2023-11-23T18:10:22.597Z,50411.96
2023-11-23T18:12:52.275Z,50405.96
2023-11-23T18:15:22.076Z,50396.36
2023-11-23T18:18:02.314Z,50395.56
2023-11-23T18:20:41.567Z,50395.96
2023-11-23T18:23:18.032Z,50403.96
2023-11-23T18:25:51.668Z,50414.36
2023-11-23T18:28:21.088Z,50413.55
2023-11-23T18:30:53.984Z,50415.95
2023-11-23T18:33:23.068Z,50388.36
2023-11-23T18:35:51.517Z,50399.96
2023-11-23T18:38:20.859Z,50403.16
2023-11-23T18:40:50.210Z,50407.16
2023-11-23T18:43:20.594Z,50407.96
2023-11-23T18:45:55.534Z,50399.56
2023-11-23T18:48:25.065Z,50413.16
2023-11-23T18:50:56.259Z,50408.76
2023-11-23T18:53:26.343Z,50385.96
2023-11-23T18:56:01.531Z,50390.76
2023-11-23T18:58:32.259Z,50397.56
2023-11-23T19:01:04.606Z,50399.56
2023-11-23T19:03:57.041Z,50386.76
2023-11-23T19:06:26.027Z,50411.55
2023-11-23T19:08:54.493Z,50406.36
2023-11-23T19:11:22.969Z,50395.56
2023-11-23T19:13:51.683Z,50408.36
2023-11-23T19:16:20.482Z,50389.56
2023-11-23T19:18:50.873Z,50392.77
2023-11-23T19:21:19.707Z,50420.35
2023-11-23T19:23:48.260Z,50406.76
2023-11-23T19:26:17.536Z,50397.56
2023-11-23T19:28:47.565Z,50397.96
2023-11-23T19:31:16.584Z,50397.56
2023-11-23T19:33:47.906Z,50384.76
2023-11-23T19:36:16.725Z,50392.36
2023-11-23T19:38:45.508Z,50399.56
2023-11-23T19:41:14.348Z,50406.76
2023-11-23T19:43:42.828Z,50393.96
2023-11-23T19:46:18.153Z,50407.16
2023-11-23T19:48:47.051Z,50387.56
2023-11-23T19:51:22.998Z,50403.16
2023-11-23T19:53:56.496Z,50389.56
2023-11-23T19:56:26.241Z,50388.76
2023-11-23T19:58:58.306Z,50406.36
2023-11-23T20:01:29.671Z,50400.76
2023-11-23T20:03:58.166Z,50385.16
2023-11-23T20:06:26.690Z,50387.96
2023-11-23T20:08:54.893Z,50397.16
2023-11-23T20:11:23.266Z,50391.56
2023-11-23T20:13:53.682Z,50398.36
2023-11-23T20:16:28.420Z,50389.56
2023-11-23T20:19:02.967Z,50381.56
2023-11-23T20:21:31.375Z,50394.76
2023-11-23T20:23:59.767Z,50385.56
2023-11-23T20:26:28.007Z,50387.56
2023-11-23T20:28:56.243Z,50387.56
2023-11-23T20:31:24.506Z,50392.36
2023-11-23T20:33:52.969Z,50397.16
2023-11-23T20:36:21.452Z,50411.96
2023-11-23T20:38:49.810Z,50394.76
2023-11-23T20:41:18.106Z,50413.16
2023-11-23T20:43:47.815Z,50388.36
2023-11-23T20:46:16.025Z,50401.16
2023-11-23T20:48:45.440Z,50406.76
2023-11-23T20:51:14.951Z,50391.16
2023-11-23T20:53:44.143Z,50400.36
2023-11-23T20:56:13.060Z,50397.16
2023-11-23T20:58:41.742Z,50401.96
2023-11-23T21:01:10.475Z,50383.96
2023-11-23T21:03:39.175Z,50391.56
2023-11-23T21:06:10.708Z,50382.36
2023-11-23T21:08:39.949Z,50398.76
2023-11-23T21:11:08.184Z,50403.96
2023-11-23T21:13:37.523Z,50393.56
2023-11-23T21:16:06.595Z,50406.36
2023-11-23T21:18:35.218Z,50403.56
2023-11-23T21:21:03.616Z,50393.56
2023-11-23T21:23:37.996Z,50395.96
2023-11-23T21:26:07.284Z,50391.56
2023-11-23T21:28:35.663Z,50387.16
2023-11-23T21:31:04.361Z,50395.56
2023-11-23T21:33:34.372Z,50407.15
2023-11-23T21:36:07.427Z,50402.36
2023-11-23T21:38:35.656Z,50396.36
2023-11-23T21:41:06.175Z,50402.76
2023-11-23T21:43:34.485Z,50391.16
2023-11-23T21:46:05.436Z,50397.16
2023-11-23T21:48:34.235Z,50404.36
2023-11-23T21:51:04.210Z,50412.36
2023-11-23T21:53:33.750Z,50401.16
2023-11-23T21:56:02.672Z,50408.76
2023-11-23T21:58:31.463Z,50389.56
2023-11-23T22:00:59.804Z,50396.76
2023-11-23T22:03:29.740Z,50400.76
2023-11-23T22:05:58.172Z,50392.36
2023-11-23T22:08:26.513Z,50406.36
2023-11-23T22:10:54.776Z,50389.16
2023-11-23T22:13:23.042Z,50405.96
2023-11-23T22:15:51.523Z,50395.16
2023-11-23T22:18:21.114Z,50390.37
2023-11-23T22:20:50.162Z,50399.56
2023-11-23T22:23:18.812Z,50406.36
2023-11-23T22:25:48.170Z,50400.36
2023-11-23T22:28:16.614Z,50401.16
2023-11-23T22:30:45.366Z,50398.76
2023-11-23T22:33:14.327Z,50404.36
2023-11-23T22:35:42.798Z,50393.56
2023-11-23T22:38:12.788Z,50392.76
2023-11-23T22:40:41.722Z,50418.36
2023-11-23T22:43:10.380Z,50403.55
2023-11-23T22:45:38.976Z,50391.56
2023-11-23T22:48:07.513Z,50408.76
2023-11-23T22:50:35.790Z,50399.56
2023-11-23T22:53:04.221Z,50393.96
2023-11-23T22:55:33.122Z,50403.16
2023-11-23T22:58:01.303Z,50397.96
2023-11-23T23:00:37.577Z,50391.96
2023-11-23T23:03:06.549Z,50399.56
2023-11-23T23:05:35.057Z,50391.96
2023-11-23T23:08:03.913Z,50405.16
2023-11-23T23:10:34.638Z,50395.96
2023-11-23T23:13:06.773Z,50404.76
2023-11-23T23:15:35.102Z,50393.56
2023-11-23T23:18:03.521Z,50413.55
2023-11-23T23:20:31.849Z,50408.36
2023-11-23T23:23:00.202Z,50409.55
2023-11-23T23:25:28.404Z,50383.56
2023-11-23T23:27:57.488Z,50400.36
2023-11-23T23:30:27.853Z,50390.76
2023-11-23T23:32:56.227Z,50403.96
2023-11-23T23:35:25.069Z,50396.36
2023-11-23T23:37:53.256Z,50400.36
2023-11-23T23:40:21.409Z,50398.36
2023-11-23T23:42:50.617Z,50399.96
2023-11-23T23:45:18.975Z,50389.56
2023-11-23T23:47:47.319Z,50399.96
2023-11-23T23:50:15.553Z,50393.16
2023-11-23T23:52:45.387Z,50416.35
2023-11-23T23:55:14.777Z,50408.76
2023-11-23T23:57:43.292Z,50418.75
